createdAt,value
2023-03-20T00:02:27.950Z,38.83
2023-03-20T00:04:56.788Z,37.47
2023-03-20T00:07:25.986Z,42.90
2023-03-20T00:09:55.276Z,38.53
2023-03-20T00:12:26.587Z,39.57
2023-03-20T00:14:55.498Z,39.07
2023-03-20T00:17:25.696Z,38.37
2023-03-20T00:19:54.430Z,37.67
2023-03-20T00:22:23.157Z,36.53
2023-03-20T00:24:52.086Z,42.90
2023-03-20T00:27:20.757Z,44.67
2023-03-20T00:29:49.553Z,36.20
2023-03-20T00:32:18.463Z,42.00
2023-03-20T00:34:48.620Z,39.70
2023-03-20T00:37:17.340Z,39.50
2023-03-20T00:39:46.067Z,40.30
2023-03-20T00:42:21.257Z,42.60
2023-03-20T00:44:54.301Z,38.17
2023-03-20T00:47:24.779Z,45.63
2023-03-20T00:49:56.176Z,40.60
2023-03-20T00:52:25.233Z,39.03
2023-03-20T00:54:54.224Z,40.80
2023-03-20T00:57:26.422Z,42.50
2023-03-20T00:59:58.422Z,40.47
2023-03-20T01:02:31.464Z,39.67
2023-03-20T01:05:01.880Z,40.40
2023-03-20T01:07:30.677Z,41.13
2023-03-20T01:09:59.493Z,41.80
2023-03-20T01:12:28.508Z,39.17
2023-03-20T01:14:59.166Z,41.10
2023-03-20T01:17:29.187Z,39.20
2023-03-20T01:19:57.994Z,39.87
2023-03-20T01:22:28.144Z,39.13
2023-03-20T01:24:56.919Z,47.43
2023-03-20T01:27:25.607Z,40.30
2023-03-20T01:29:54.361Z,43.03
2023-03-20T01:32:23.336Z,42.40
2023-03-20T01:34:53.293Z,39.30
2023-03-20T01:37:26.883Z,38.40
2023-03-20T01:39:58.032Z,39.87
2023-03-20T01:42:26.833Z,39.80
2023-03-20T01:44:55.859Z,40.93
2023-03-20T01:47:26.343Z,39.83
2023-03-20T01:50:22.618Z,38.03
2023-03-20T01:52:54.954Z,39.50
2023-03-20T01:55:25.580Z,40.93
2023-03-20T01:57:56.864Z,37.40
2023-03-20T02:00:27.635Z,41.63
2023-03-20T02:02:57.382Z,39.57
2023-03-20T02:05:26.524Z,40.10
2023-03-20T02:08:04.352Z,39.70
2023-03-20T02:10:34.571Z,38.77
2023-03-20T02:13:04.875Z,40.00
2023-03-20T02:15:34.228Z,37.23
2023-03-20T02:18:03.186Z,40.03
2023-03-20T02:20:45.785Z,38.50
2023-03-20T02:23:42.712Z,41.00
2023-03-20T02:26:31.165Z,39.73
2023-03-20T02:29:38.313Z,40.83
2023-03-20T02:32:34.298Z,38.77
2023-03-20T02:35:35.921Z,39.30
2023-03-20T02:38:21.668Z,39.40
2023-03-20T02:40:58.361Z,36.93
2023-03-20T02:43:36.561Z,36.43
2023-03-20T02:46:12.642Z,38.97
2023-03-20T02:48:49.770Z,37.50
2023-03-20T02:51:25.216Z,39.17
2023-03-20T02:54:02.554Z,39.27
2023-03-20T02:56:36.821Z,38.60
2023-03-20T02:59:13.580Z,38.20
2023-03-20T03:01:45.206Z,38.40
2023-03-20T03:04:18.640Z,37.60
2023-03-20T03:06:51.974Z,42.10
2023-03-20T03:09:26.154Z,42.93
2023-03-20T03:12:01.264Z,44.33
2023-03-20T03:14:36.998Z,42.60
2023-03-20T03:17:08.063Z,44.10
2023-03-20T03:19:38.704Z,44.67
2023-03-20T03:22:07.913Z,46.47
2023-03-20T03:24:41.650Z,43.10
2023-03-20T03:27:19.053Z,41.10
2023-03-20T03:29:52.642Z,42.17
2023-03-20T03:32:26.475Z,42.63
2023-03-20T03:34:56.206Z,39.90
2023-03-20T03:37:36.371Z,36.00
2023-03-20T03:40:17.861Z,38.40
2023-03-20T03:42:55.459Z,38.87
2023-03-20T03:45:31.554Z,40.43
2023-03-20T03:48:05.493Z,39.93
2023-03-20T03:50:39.805Z,38.20
2023-03-20T03:53:14.878Z,37.73
2023-03-20T03:55:49.742Z,41.23
2023-03-20T03:58:23.803Z,39.53
2023-03-20T04:00:55.038Z,40.37
2023-03-20T04:03:28.550Z,37.33
2023-03-20T04:05:59.843Z,37.50
2023-03-20T04:08:28.664Z,36.60
2023-03-20T04:10:58.843Z,39.37
2023-03-20T04:13:27.606Z,36.13
2023-03-20T04:15:56.637Z,35.57
2023-03-20T04:18:25.456Z,34.00
2023-03-20T04:20:54.943Z,34.87
2023-03-20T04:23:24.258Z,35.43
2023-03-20T04:25:53.048Z,35.33
2023-03-20T04:28:23.378Z,34.20
2023-03-20T04:30:54.724Z,34.33
2023-03-20T04:33:23.900Z,36.67
2023-03-20T04:35:52.719Z,34.77
2023-03-20T04:38:23.330Z,35.77
2023-03-20T04:40:52.549Z,34.00
2023-03-20T04:43:22.731Z,35.23
2023-03-20T04:45:51.662Z,35.17
2023-03-20T04:48:20.622Z,36.13
2023-03-20T04:50:51.132Z,33.97
2023-03-20T04:53:20.724Z,35.93
2023-03-20T04:55:51.252Z,33.97
2023-03-20T04:58:20.031Z,36.30
2023-03-20T05:00:50.384Z,33.97
2023-03-20T05:03:20.688Z,33.70
2023-03-20T05:05:50.686Z,34.47
2023-03-20T05:08:19.512Z,33.83
2023-03-20T05:10:48.333Z,33.80
2023-03-20T05:13:17.083Z,34.07
2023-03-20T05:15:46.050Z,33.13
2023-03-20T05:18:16.343Z,33.10
2023-03-20T05:20:45.117Z,31.40
2023-03-20T05:23:13.897Z,33.20
2023-03-20T05:25:42.759Z,36.57
2023-03-20T05:28:11.464Z,32.90
2023-03-20T05:30:40.299Z,32.53
2023-03-20T05:33:09.166Z,30.33
2023-03-20T05:35:39.819Z,30.43
2023-03-20T05:38:08.769Z,32.70
2023-03-20T05:40:37.669Z,33.27
2023-03-20T05:43:06.423Z,34.03
2023-03-20T05:45:35.826Z,33.23
2023-03-20T05:48:04.840Z,33.60
2023-03-20T05:50:33.605Z,33.30
2023-03-20T05:53:03.860Z,30.53
2023-03-20T05:55:33.326Z,29.33
2023-03-20T05:58:02.477Z,30.10
2023-03-20T06:00:31.268Z,31.70
2023-03-20T06:03:00.175Z,30.63
2023-03-20T06:05:29.011Z,30.50
2023-03-20T06:07:57.791Z,27.83
2023-03-20T06:10:28.196Z,26.10
2023-03-20T06:12:56.976Z,26.43
2023-03-20T06:15:25.972Z,26.57
2023-03-20T06:17:55.333Z,24.97
2023-03-20T06:20:24.678Z,27.40
2023-03-20T06:22:53.508Z,25.73
2023-03-20T06:25:22.481Z,27.83
2023-03-20T06:27:52.700Z,27.73
2023-03-20T06:30:21.634Z,27.37
2023-03-20T06:32:51.654Z,28.10
2023-03-20T06:35:21.285Z,28.63
2023-03-20T06:37:50.968Z,25.80
2023-03-20T06:40:20.416Z,26.63
2023-03-20T06:42:49.556Z,27.17
2023-03-20T06:45:19.958Z,27.13
2023-03-20T06:47:49.050Z,26.33
2023-03-20T06:50:18.258Z,28.17
2023-03-20T06:52:47.697Z,27.27
2023-03-20T06:55:16.743Z,27.80
2023-03-20T06:57:46.353Z,28.53
2023-03-20T07:00:16.790Z,27.17
2023-03-20T07:02:49.115Z,27.63
2023-03-20T07:05:18.695Z,27.53
2023-03-20T07:07:47.576Z,28.17
2023-03-20T07:10:17.520Z,28.27
2023-03-20T07:12:47.088Z,29.40
2023-03-20T07:15:16.028Z,26.63
2023-03-20T07:17:45.375Z,25.13
2023-03-20T07:20:16.607Z,24.87
2023-03-20T07:22:46.541Z,23.30
2023-03-20T07:25:16.214Z,25.50
2023-03-20T07:27:50.867Z,21.33
2023-03-20T07:30:20.332Z,21.23
2023-03-20T07:32:49.914Z,22.53
2023-03-20T07:35:20.709Z,22.03
2023-03-20T07:37:50.129Z,20.93
2023-03-20T07:40:19.711Z,21.13
2023-03-20T07:42:51.115Z,21.00
2023-03-20T07:45:20.110Z,21.37
2023-03-20T07:47:50.549Z,22.97
2023-03-20T07:50:21.016Z,21.47
2023-03-20T07:52:51.640Z,23.43
2023-03-20T07:55:20.299Z,22.70
2023-03-20T07:57:51.390Z,22.63
2023-03-20T08:00:21.472Z,22.73
2023-03-20T08:02:50.471Z,22.30
2023-03-20T08:05:20.735Z,22.93
2023-03-20T08:07:49.822Z,27.30
2023-03-20T08:10:18.973Z,21.47
2023-03-20T08:12:47.992Z,23.77
2023-03-20T08:15:16.846Z,21.33
2023-03-20T08:17:45.897Z,21.87
2023-03-20T08:20:16.465Z,24.70
2023-03-20T08:22:49.897Z,23.90
2023-03-20T08:25:18.834Z,24.77
2023-03-20T08:27:47.660Z,25.87
2023-03-20T08:30:17.119Z,21.67
2023-03-20T08:32:46.041Z,24.73
2023-03-20T08:35:32.093Z,24.63
2023-03-20T08:38:07.375Z,24.47
2023-03-20T08:40:36.220Z,27.10
2023-03-20T08:43:05.785Z,25.80
2023-03-20T08:45:35.052Z,24.00
2023-03-20T08:48:04.108Z,27.70
2023-03-20T08:50:33.215Z,27.63
2023-03-20T08:53:02.336Z,28.33
2023-03-20T08:55:32.537Z,26.20
2023-03-20T08:58:01.423Z,28.33
2023-03-20T09:00:30.275Z,27.03
2023-03-20T09:02:59.174Z,27.23
2023-03-20T09:05:28.064Z,26.97
2023-03-20T09:07:56.892Z,27.67
2023-03-20T09:10:25.756Z,26.97
2023-03-20T09:12:57.018Z,28.30
2023-03-20T09:15:25.881Z,24.90
2023-03-20T09:17:54.672Z,25.10
2023-03-20T09:20:23.654Z,25.17
2023-03-20T09:22:52.441Z,24.60
2023-03-20T09:25:21.603Z,24.83
2023-03-20T09:27:55.599Z,24.00
2023-03-20T09:30:25.942Z,25.33
2023-03-20T09:32:55.680Z,23.27
2023-03-20T09:35:24.591Z,24.93
2023-03-20T09:37:53.289Z,23.93
2023-03-20T09:40:28.657Z,23.37
2023-03-20T09:43:10.495Z,25.20
2023-03-20T09:45:53.055Z,24.90
2023-03-20T09:48:29.995Z,23.20
2023-03-20T09:51:08.951Z,22.73
2023-03-20T09:53:45.095Z,23.40
2023-03-20T09:56:19.239Z,25.03
2023-03-20T09:58:55.780Z,23.63
2023-03-20T10:01:29.451Z,22.57
2023-03-20T10:04:01.099Z,21.33
2023-03-20T10:06:30.373Z,22.27
2023-03-20T10:08:59.380Z,21.27
2023-03-20T10:11:44.214Z,21.27
2023-03-20T10:14:22.625Z,19.00
2023-03-20T10:17:04.940Z,18.83
2023-03-20T10:19:37.769Z,16.77
2023-03-20T10:22:16.738Z,18.70
2023-03-20T10:24:51.598Z,18.67
2023-03-20T10:27:28.073Z,17.80
2023-03-20T10:30:15.490Z,16.10
2023-03-20T10:32:54.174Z,17.73
2023-03-20T10:35:30.550Z,17.27
2023-03-20T10:38:15.098Z,15.20
2023-03-20T10:40:44.976Z,14.80
2023-03-20T10:43:19.839Z,13.80
2023-03-20T10:45:53.647Z,13.03
2023-03-20T10:48:27.636Z,13.00
2023-03-20T10:50:58.626Z,14.00
2023-03-20T10:53:32.949Z,11.50
2023-03-20T10:56:06.917Z,13.97
2023-03-20T10:58:40.098Z,13.20
2023-03-20T11:01:11.228Z,13.03
2023-03-20T11:03:41.527Z,11.53
2023-03-20T11:06:19.008Z,10.47
2023-03-20T11:08:52.297Z,11.07
2023-03-20T11:11:28.260Z,10.80
2023-03-20T11:13:59.424Z,11.33
2023-03-20T11:16:37.102Z,10.60
2023-03-20T11:19:08.772Z,10.30
2023-03-20T11:21:46.525Z,11.13
2023-03-20T11:24:27.941Z,11.17
2023-03-20T11:27:06.186Z,12.40
2023-03-20T11:29:36.199Z,11.50
2023-03-20T11:32:18.074Z,12.57
2023-03-20T11:34:48.175Z,11.20
2023-03-20T11:37:29.161Z,11.40
2023-03-20T11:40:02.664Z,12.10
2023-03-20T11:42:32.263Z,12.53
2023-03-20T11:45:03.322Z,12.27
2023-03-20T11:47:36.965Z,10.97
2023-03-20T11:50:08.813Z,12.10
2023-03-20T11:52:41.337Z,12.73
2023-03-20T11:55:26.737Z,12.87
2023-03-20T11:57:59.809Z,15.57
2023-03-20T12:00:36.659Z,14.93
2023-03-20T12:03:38.728Z,15.17
2023-03-20T12:06:16.292Z,15.50
2023-03-20T12:08:50.658Z,16.40
2023-03-20T12:11:42.426Z,16.50
2023-03-20T12:14:22.423Z,16.07
2023-03-20T12:16:55.202Z,15.60
2023-03-20T12:19:30.921Z,17.13
2023-03-20T12:22:05.605Z,17.40
2023-03-20T12:24:40.151Z,17.80
2023-03-20T12:27:19.980Z,17.57
2023-03-20T12:29:52.856Z,16.93
2023-03-20T12:32:29.285Z,17.07
2023-03-20T12:35:06.401Z,16.23
2023-03-20T12:37:35.535Z,15.20
2023-03-20T12:40:05.940Z,14.97
2023-03-20T12:42:47.820Z,16.07
2023-03-20T12:45:21.475Z,16.13
2023-03-20T12:48:06.181Z,16.13
2023-03-20T12:50:38.961Z,15.40
2023-03-20T12:53:21.739Z,15.20
2023-03-20T12:56:05.607Z,15.80
2023-03-20T12:58:44.902Z,13.27
2023-03-20T13:01:20.842Z,13.80
2023-03-20T13:04:27.852Z,14.60
2023-03-20T13:07:01.763Z,14.83
2023-03-20T13:10:09.351Z,14.43
2023-03-20T13:12:47.624Z,14.43
2023-03-20T13:15:27.163Z,18.83
2023-03-20T13:18:05.970Z,18.43
2023-03-20T13:20:40.603Z,18.00
2023-03-20T13:23:25.300Z,15.27
2023-03-20T13:26:08.137Z,14.33
2023-03-20T13:28:50.642Z,12.53
2023-03-20T13:31:30.718Z,14.67
2023-03-20T13:34:05.291Z,14.03
2023-03-20T13:36:51.687Z,13.70
2023-03-20T13:39:28.676Z,13.70
2023-03-20T13:41:58.963Z,12.93
2023-03-20T13:44:30.709Z,18.00
2023-03-20T13:47:02.562Z,9.27
2023-03-20T13:49:40.890Z,10.27
2023-03-20T13:52:15.917Z,9.00
2023-03-20T13:55:02.704Z,6.93
2023-03-20T13:57:48.080Z,4.70
2023-03-20T14:00:27.805Z,4.57
2023-03-20T14:03:13.598Z,4.43
2023-03-20T14:05:44.017Z,4.70
2023-03-20T14:08:33.939Z,5.23
2023-03-20T14:11:32.912Z,5.77
2023-03-20T14:14:08.212Z,6.00
2023-03-20T14:16:37.209Z,6.07
2023-03-20T14:19:18.240Z,5.53
2023-03-20T14:21:48.300Z,7.43
2023-03-20T14:24:19.895Z,7.97
2023-03-20T14:26:54.436Z,8.70
2023-03-20T14:29:34.908Z,10.40
2023-03-20T14:32:24.517Z,11.93
2023-03-20T14:34:54.955Z,11.90
2023-03-20T14:37:37.995Z,12.37
2023-03-20T14:40:17.231Z,14.83
2023-03-20T14:42:54.767Z,13.07
2023-03-20T14:45:39.248Z,12.67
2023-03-20T14:48:16.767Z,11.80
2023-03-20T14:51:00.866Z,9.50
2023-03-20T14:53:30.336Z,8.73
2023-03-20T14:56:11.426Z,7.30
2023-03-20T14:58:57.237Z,7.53
2023-03-20T15:01:45.066Z,7.20
2023-03-20T15:04:26.659Z,5.10
2023-03-20T15:06:59.297Z,4.53
2023-03-20T15:09:30.778Z,4.57
2023-03-20T15:12:04.688Z,5.80
2023-03-20T15:14:42.040Z,4.60
2023-03-20T15:17:20.641Z,5.33
2023-03-20T15:19:52.757Z,4.17
2023-03-20T15:22:22.494Z,4.30
2023-03-20T15:24:56.112Z,3.63
2023-03-20T15:27:29.778Z,3.60
2023-03-20T15:30:04.102Z,3.73
2023-03-20T15:32:35.700Z,3.00
2023-03-20T15:35:07.075Z,3.13
2023-03-20T15:37:36.693Z,2.90
2023-03-20T15:40:14.256Z,2.83
2023-03-20T15:42:43.100Z,3.50
2023-03-20T15:45:26.650Z,3.43
2023-03-20T15:48:02.506Z,3.57
2023-03-20T15:50:35.190Z,3.50
2023-03-20T15:53:05.497Z,4.87
2023-03-20T15:55:35.558Z,3.80
2023-03-20T15:58:06.389Z,2.90
2023-03-20T16:00:40.938Z,3.27
2023-03-20T16:03:15.334Z,3.70
2023-03-20T16:05:46.378Z,3.40
2023-03-20T16:08:21.620Z,3.80
2023-03-20T16:13:46.879Z,4.20
2023-03-20T16:16:19.546Z,4.37
2023-03-20T16:18:50.690Z,4.20
2023-03-20T16:21:25.160Z,4.60
2023-03-20T16:23:56.680Z,5.33
2023-03-20T16:26:27.924Z,5.80
2023-03-20T16:29:02.779Z,4.83
2023-03-20T16:31:34.416Z,5.53
2023-03-20T16:34:06.080Z,7.93
2023-03-20T16:36:36.795Z,9.27
2023-03-20T16:39:10.318Z,8.67
2023-03-20T16:41:40.025Z,11.50
2023-03-20T16:44:16.747Z,6.90
2023-03-20T16:46:58.968Z,5.47
2023-03-20T16:49:53.492Z,5.40
2023-03-20T16:52:28.132Z,7.43
2023-03-20T16:54:59.416Z,9.33
2023-03-20T16:57:31.163Z,7.17
2023-03-20T17:00:06.733Z,10.30
2023-03-20T17:02:40.372Z,10.00
2023-03-20T17:05:14.896Z,7.53
2023-03-20T17:07:44.621Z,10.03
2023-03-20T17:10:22.035Z,8.00
2023-03-20T17:12:53.466Z,9.07
2023-03-20T17:15:25.950Z,8.80
2023-03-20T17:17:56.250Z,10.00
2023-03-20T17:20:28.004Z,8.90
2023-03-20T17:22:57.376Z,9.70
2023-03-20T17:25:26.818Z,8.57
2023-03-20T17:28:00.771Z,10.37
2023-03-20T17:30:31.533Z,9.73
2023-03-20T17:33:01.422Z,8.90
2023-03-20T17:35:31.835Z,9.10
2023-03-20T17:38:05.575Z,10.33
2023-03-20T17:40:35.803Z,9.67
2023-03-20T17:43:05.685Z,9.67
2023-03-20T17:45:40.793Z,9.83
2023-03-20T17:48:17.621Z,10.30
2023-03-20T17:50:47.268Z,10.27
2023-03-20T17:53:18.755Z,14.37
2023-03-20T17:55:50.530Z,15.47
2023-03-20T17:58:23.682Z,13.83
2023-03-20T18:00:57.171Z,13.47
2023-03-20T18:03:28.077Z,14.27
2023-03-20T18:05:58.644Z,13.97
2023-03-20T18:08:28.377Z,13.33
2023-03-20T18:10:59.975Z,14.20
2023-03-20T18:13:30.500Z,14.73
2023-03-20T18:16:05.469Z,12.97
2023-03-20T18:18:35.979Z,14.40
2023-03-20T18:21:07.019Z,16.60
2023-03-20T18:23:36.811Z,17.47
2023-03-20T18:26:09.106Z,15.10
2023-03-20T18:28:40.684Z,19.70
2023-03-20T18:31:17.784Z,18.07
2023-03-20T18:33:50.873Z,18.93
2023-03-20T18:36:23.866Z,16.17
2023-03-20T18:38:57.394Z,16.93
2023-03-20T18:41:28.879Z,17.73
2023-03-20T18:43:59.665Z,17.60
2023-03-20T18:46:34.721Z,15.07
2023-03-20T18:49:05.031Z,15.40
2023-03-20T18:51:35.683Z,14.17
2023-03-20T18:54:08.746Z,14.50
2023-03-20T18:56:41.540Z,16.33
2023-03-20T18:59:16.437Z,14.93
2023-03-20T19:01:54.003Z,14.77
2023-03-20T19:04:27.866Z,14.53
2023-03-20T19:06:59.646Z,16.23
2023-03-20T19:09:31.754Z,16.13
2023-03-20T19:12:06.083Z,15.67
2023-03-20T19:14:39.336Z,15.60
2023-03-20T19:17:14.880Z,14.73
2023-03-20T19:19:44.431Z,15.33
2023-03-20T19:22:28.432Z,15.33
2023-03-20T19:25:01.284Z,15.87
2023-03-20T19:27:37.392Z,15.17
2023-03-20T19:30:10.340Z,14.33
2023-03-20T19:32:45.111Z,14.60
2023-03-20T19:38:17.051Z,15.40
2023-03-20T19:40:53.850Z,17.97
2023-03-20T19:43:25.946Z,16.53
2023-03-20T19:45:58.974Z,17.73
2023-03-20T19:48:46.905Z,14.80
2023-03-20T19:51:22.661Z,14.07
2023-03-20T19:53:57.660Z,13.63
2023-03-20T19:56:30.549Z,14.13
2023-03-20T19:59:04.114Z,13.67
2023-03-20T20:01:35.130Z,14.40
2023-03-20T20:04:09.932Z,15.00
2023-03-20T20:06:42.461Z,13.93
2023-03-20T20:09:15.822Z,13.83
2023-03-20T20:11:46.751Z,16.13
2023-03-20T20:14:23.995Z,14.37
2023-03-20T20:16:57.211Z,14.97
2023-03-20T20:19:29.063Z,16.30
2023-03-20T20:22:20.025Z,16.53
2023-03-20T20:24:50.837Z,16.63
2023-03-20T20:27:21.776Z,18.70
2023-03-20T20:29:57.370Z,18.10
2023-03-20T20:32:37.140Z,18.47
2023-03-20T20:38:40.892Z,23.77
2023-03-20T20:41:01.524Z,22.50
2023-03-20T20:44:03.877Z,21.80
2023-03-20T20:46:23.832Z,19.07
2023-03-20T20:48:54.840Z,20.87
2023-03-20T20:51:30.146Z,19.63
2023-03-20T20:53:59.937Z,20.23
2023-03-20T20:56:29.999Z,21.30
2023-03-20T20:59:00.213Z,21.17
2023-03-20T21:01:30.103Z,23.67
2023-03-20T21:04:01.803Z,20.03
2023-03-20T21:07:03.793Z,22.17
2023-03-20T21:09:32.309Z,24.80
2023-03-20T21:12:04.056Z,22.83
2023-03-20T21:14:34.720Z,26.90
2023-03-20T21:17:06.634Z,25.30
2023-03-20T21:19:44.092Z,21.60
2023-03-20T21:22:17.983Z,20.97
2023-03-20T21:24:47.352Z,23.87
2023-03-20T21:27:18.340Z,20.63
2023-03-20T21:29:49.117Z,20.40
2023-03-20T21:32:24.657Z,24.70
2023-03-20T21:34:53.438Z,24.00
2023-03-20T21:38:28.368Z,20.53
2023-03-20T21:40:13.820Z,26.63
2023-03-20T21:42:43.128Z,23.07
2023-03-20T21:46:09.931Z,23.83
2023-03-20T21:48:36.432Z,25.40
2023-03-20T21:51:20.666Z,24.83
2023-03-20T21:57:04.994Z,23.60
2023-03-20T22:00:17.038Z,23.17
2023-03-20T22:02:24.883Z,22.03
2023-03-20T22:08:33.556Z,25.87
2023-03-20T22:14:18.898Z,26.20
2023-03-20T22:17:10.028Z,26.03
2023-03-20T22:22:42.504Z,24.50
2023-03-20T22:28:15.188Z,26.03
2023-03-20T22:34:05.993Z,24.60
2023-03-20T22:36:51.996Z,28.07
2023-03-20T22:47:17.735Z,25.80
2023-03-20T22:49:46.979Z,26.77
2023-03-20T22:52:29.252Z,26.70
2023-03-20T22:55:01.307Z,24.87
2023-03-20T22:57:41.151Z,27.93
2023-03-20T23:00:14.672Z,26.70
2023-03-20T23:02:43.574Z,26.80
2023-03-20T23:05:12.981Z,25.60
2023-03-20T23:07:42.109Z,27.33
2023-03-20T23:10:13.397Z,25.97
2023-03-20T23:12:44.081Z,27.53
2023-03-20T23:15:14.719Z,24.23
2023-03-20T23:17:43.630Z,26.67
2023-03-20T23:20:18.742Z,31.77
2023-03-20T23:22:49.168Z,34.40
2023-03-20T23:25:30.729Z,36.37
2023-03-20T23:28:07.077Z,32.13
2023-03-20T23:30:46.750Z,31.37
2023-03-20T23:33:20.680Z,29.77
2023-03-20T23:35:51.214Z,28.63
2023-03-20T23:38:20.151Z,32.40
2023-03-20T23:40:52.185Z,33.57
2023-03-20T23:43:21.432Z,35.50
2023-03-20T23:45:52.258Z,37.00
2023-03-20T23:48:21.993Z,39.80
2023-03-20T23:50:53.334Z,34.17
2023-03-20T23:53:22.795Z,37.73
2023-03-20T23:55:54.276Z,43.27
2023-03-20T23:58:24.404Z,38.93
